Time;durP1;ratioP1;P1;durP2;ratioP2;P2;SDS_P1;SDS_P2;PMS_P1;PMS_P2;Temp;Humidity;BMP_temperature;BMP_pressure;BME280_temperature;BME280_humidity;BME280_pressure;Samples;Min_cycle;Max_cycle;Signal;HPM_P1;HPM_P2
2022/01/17 00:01:44;;;;;;;175.97;66.67;;;2.10;99.90;;;;;;5069187;28;20466;-44
2022/01/17 00:04:11;;;;;;;109.40;41.60;;;2.10;99.90;;;;;;5067245;28;20482;-45
2022/01/17 00:06:41;;;;;;;132.27;46.37;;;2.10;99.90;;;;;;5059090;28;20485;-45
2022/01/17 00:09:08;;;;;;;68.80;23.53;;;2.10;99.90;;;;;;5078132;28;20510;-45
2022/01/17 00:11:39;;;;;;;96.17;34.87;;;2.00;99.90;;;;;;5058010;28;20492;-45
2022/01/17 00:14:11;;;;;;;119.53;37.37;;;2.10;99.90;;;;;;5093156;28;20474;-45
2022/01/17 00:16:43;;;;;;;165.20;54.03;;;2.00;99.90;;;;;;5068109;28;20495;-44
2022/01/17 00:19:35;;;;;;;160.60;49.87;;;2.00;99.90;;;;;;5070174;28;20817;-45
2022/01/17 00:22:04;;;;;;;126.37;40.03;;;2.00;99.90;;;;;;5072932;28;20485;-45
2022/01/17 00:24:31;;;;;;;187.57;56.77;;;2.00;99.90;;;;;;5063504;27;20478;-45
2022/01/17 00:26:58;;;;;;;148.87;52.17;;;2.00;99.90;;;;;;5083204;27;20907;-45
2022/01/17 00:29:24;;;;;;;90.50;37.20;;;2.00;99.90;;;;;;5069612;28;20481;-45
2022/01/17 00:31:51;;;;;;;113.23;36.93;;;2.10;99.90;;;;;;5081218;27;20584;-45
2022/01/17 00:34:18;;;;;;;142.27;47.50;;;2.10;99.90;;;;;;5075199;28;20482;-45
2022/01/17 00:36:44;;;;;;;109.57;36.70;;;2.20;99.90;;;;;;5077420;27;20551;-45
2022/01/17 00:39:13;;;;;;;124.20;34.80;;;2.20;99.90;;;;;;5076396;28;20481;-45
2022/01/17 00:41:39;;;;;;;80.87;31.17;;;2.20;99.90;;;;;;5077684;28;20469;-45
2022/01/17 00:44:06;;;;;;;71.00;27.50;;;2.20;99.90;;;;;;5075865;28;20485;-45
2022/01/17 00:46:33;;;;;;;73.17;24.20;;;2.20;99.90;;;;;;5077992;28;20525;-45
2022/01/17 00:49:00;;;;;;;112.40;34.97;;;2.20;99.90;;;;;;5060775;28;20489;-45
2022/01/17 00:51:27;;;;;;;173.37;55.07;;;2.30;99.90;;;;;;5086301;27;20477;-44
2022/01/17 00:53:54;;;;;;;102.93;27.53;;;;;;;;;;5068770;27;20487;-45
2022/01/17 00:56:23;;;;;;;231.57;40.07;;;2.10;99.90;;;;;;5071851;27;20661;-45
2022/01/17 00:58:50;;;;;;;103.87;31.40;;;2.10;99.90;;;;;;5060550;27;20478;-45
2022/01/17 01:01:18;;;;;;;138.23;44.70;;;2.00;99.90;;;;;;5052867;28;20543;-45
2022/01/17 01:03:45;;;;;;;77.97;27.90;;;;;;;;;;5055865;28;20524;-46
2022/01/17 01:06:12;;;;;;;73.10;27.67;;;2.00;99.90;;;;;;5062787;28;20477;-46
2022/01/17 01:08:38;;;;;;;94.23;34.33;;;2.10;99.90;;;;;;5082580;28;21204;-44
2022/01/17 01:11:05;;;;;;;88.30;33.93;;;2.10;99.90;;;;;;5077729;28;20492;-44
2022/01/17 01:13:33;;;;;;;109.30;40.77;;;2.00;99.90;;;;;;5077787;28;20477;-45
2022/01/17 01:16:22;;;;;;;130.43;46.80;;;2.00;99.90;;;;;;5075529;28;20481;-45
2022/01/17 01:21:46;;;;;;;102.23;34.73;;;2.10;99.90;;;;;;5065309;28;20481;-45
2022/01/17 01:29:48;;;;;;;132.17;40.10;;;2.00;99.90;;;;;;5081292;28;20472;-45
2022/01/17 01:32:19;;;;;;;95.30;34.60;;;1.90;99.90;;;;;;5065809;28;20511;-45
2022/01/17 01:34:50;;;;;;;124.13;41.97;;;2.00;99.90;;;;;;5075627;28;20473;-45
2022/01/17 01:37:17;;;;;;;166.10;49.00;;;1.90;99.90;;;;;;5077614;28;20538;-44
2022/01/17 01:39:46;;;;;;;159.10;53.47;;;1.90;99.90;;;;;;5071410;28;20477;-44
2022/01/17 01:42:15;;;;;;;165.40;51.40;;;2.00;99.90;;;;;;5067457;28;20495;-45
2022/01/17 01:44:44;;;;;;;174.20;51.67;;;2.00;99.90;;;;;;5093380;27;20476;-44
2022/01/17 01:47:11;;;;;;;139.37;47.43;;;2.00;99.90;;;;;;5079393;28;20487;-44
2022/01/17 01:49:37;;;;;;;74.23;27.47;;;2.10;99.90;;;;;;5075179;28;20489;-44
2022/01/17 01:52:04;;;;;;;156.33;46.47;;;2.10;99.90;;;;;;5077044;28;20476;-46
2022/01/17 01:54:31;;;;;;;101.17;34.00;;;2.10;99.90;;;;;;5071608;28;20488;-44
2022/01/17 01:56:59;;;;;;;140.97;44.90;;;2.00;99.90;;;;;;5094666;27;20467;-44
2022/01/17 01:59:25;;;;;;;82.37;28.17;;;2.10;99.90;;;;;;5083882;27;20484;-45
2022/01/17 02:01:54;;;;;;;96.63;34.23;;;1.90;99.90;;;;;;5081393;27;20498;-45
2022/01/17 02:04:20;;;;;;;110.33;30.23;;;1.90;99.90;;;;;;5081246;27;20865;-45
2022/01/17 02:06:47;;;;;;;66.30;22.63;;;1.90;99.90;;;;;;5083884;27;20477;-45
2022/01/17 02:09:14;;;;;;;123.97;39.90;;;1.90;99.90;;;;;;5081240;27;21044;-46
2022/01/17 02:11:41;;;;;;;155.50;39.57;;;1.90;99.90;;;;;;5106818;27;20472;-52
2022/01/17 02:14:07;;;;;;;85.63;26.63;;;1.90;99.90;;;;;;5098762;27;20484;-44
2022/01/17 02:16:37;;;;;;;42.43;16.53;;;1.80;99.90;;;;;;5071397;27;20503;-45
2022/01/17 02:19:05;;;;;;;107.60;37.13;;;1.70;99.90;;;;;;5079235;28;20491;-45
2022/01/17 02:21:45;;;;;;;47.80;17.50;;;1.80;99.90;;;;;;5077605;28;20535;-45
2022/01/17 02:24:14;;;;;;;101.50;34.47;;;1.80;99.90;;;;;;5050566;28;20471;-45
2022/01/17 02:26:41;;;;;;;64.30;25.17;;;1.80;99.90;;;;;;5060000;27;20895;-45
2022/01/17 02:29:07;;;;;;;72.73;28.27;;;1.90;99.90;;;;;;5086531;27;20477;-45
2022/01/17 02:31:34;;;;;;;113.53;35.53;;;1.90;99.90;;;;;;5055834;28;20482;-45
2022/01/17 02:34:03;;;;;;;58.17;24.73;;;2.00;99.90;;;;;;5058652;28;20485;-45
2022/01/17 02:36:30;;;;;;;84.60;26.20;;;2.00;99.90;;;;;;5062232;28;21130;-45
2022/01/17 02:38:58;;;;;;;49.30;17.57;;;2.00;99.90;;;;;;5045375;28;20539;-46
2022/01/17 02:41:29;;;;;;;80.80;33.57;;;2.10;99.90;;;;;;5052780;28;20480;-45
2022/01/17 02:43:56;;;;;;;42.43;19.90;;;2.00;99.90;;;;;;5049060;28;20598;-46
2022/01/17 02:46:26;;;;;;;122.00;25.60;;;2.00;99.90;;;;;;5065501;28;20569;-45
2022/01/17 02:48:54;;;;;;;86.30;28.27;;;1.90;99.90;;;;;;5049075;28;20485;-45
2022/01/17 02:51:21;;;;;;;64.33;24.30;;;1.80;99.90;;;;;;5062845;28;20485;-45
2022/01/17 02:53:48;;;;;;;55.47;20.57;;;1.80;99.90;;;;;;5058450;28;20500;-45
2022/01/17 02:56:16;;;;;;;81.17;31.93;;;1.80;99.90;;;;;;5059885;28;20497;-45
2022/01/17 02:58:43;;;;;;;70.87;25.20;;;1.80;99.90;;;;;;5055101;28;20478;-45
2022/01/17 03:01:13;;;;;;;90.80;31.60;;;1.90;99.90;;;;;;5045793;28;20489;-45
2022/01/17 03:03:42;;;;;;;104.80;38.50;;;1.90;99.90;;;;;;5051191;28;20485;-45
2022/01/17 03:06:09;;;;;;;80.00;28.47;;;2.00;99.90;;;;;;5059632;28;20547;-45
2022/01/17 03:08:36;;;;;;;92.53;33.20;;;2.10;99.90;;;;;;5057180;28;20481;-46
2022/01/17 03:11:05;;;;;;;85.87;28.97;;;2.20;99.90;;;;;;5058551;28;20831;-45
2022/01/17 03:13:36;;;;;;;72.07;27.37;;;2.20;99.90;;;;;;5055242;28;20549;-45
2022/01/17 03:16:08;;;;;;;34.57;15.17;;;2.20;99.90;;;;;;5046475;28;20849;-45
2022/01/17 03:18:36;;;;;;;81.03;31.13;;;2.20;99.90;;;;;;5084330;27;20474;-45
2022/01/17 03:21:04;;;;;;;137.33;48.57;;;2.10;99.90;;;;;;5055238;28;20478;-44
2022/01/17 03:23:31;;;;;;;108.23;34.07;;;2.00;99.90;;;;;;5049915;28;20484;-45
2022/01/17 03:25:58;;;;;;;69.93;23.20;;;2.00;99.90;;;;;;5070388;28;20489;-44
2022/01/17 03:28:26;;;;;;;234.53;64.67;;;1.80;99.90;;;;;;5062449;28;20485;-45
2022/01/17 03:30:54;;;;;;;87.60;30.60;;;1.80;99.90;;;;;;5057787;28;20603;-45
2022/01/17 03:33:21;;;;;;;129.07;43.40;;;1.80;99.90;;;;;;5057435;28;20505;-45
2022/01/17 03:35:49;;;;;;;157.40;52.67;;;1.80;99.90;;;;;;5053596;28;20486;-45
2022/01/17 03:38:18;;;;;;;74.63;26.43;;;1.80;99.90;;;;;;5055857;28;20525;-45
2022/01/17 03:40:47;;;;;;;60.63;24.70;;;1.80;99.90;;;;;;5063602;28;20974;-45
2022/01/17 03:43:15;;;;;;;91.63;32.10;;;1.90;99.90;;;;;;5053801;28;21053;-44
2022/01/17 03:45:42;;;;;;;142.03;46.20;;;1.90;99.90;;;;;;5038816;28;20469;-44
2022/01/17 03:48:10;;;;;;;119.33;42.03;;;1.80;99.90;;;;;;5065305;28;20493;-46
2022/01/17 03:50:37;;;;;;;59.80;20.93;;;1.80;99.90;;;;;;5058801;28;20490;-45
2022/01/17 03:53:04;;;;;;;118.30;40.60;;;1.90;99.90;;;;;;5061545;28;20493;-44
2022/01/17 03:55:33;;;;;;;67.90;24.43;;;1.90;99.90;;;;;;5056754;28;20505;-44
2022/01/17 03:58:00;;;;;;;84.17;31.00;;;2.00;99.90;;;;;;5047432;28;20472;-45
2022/01/17 04:00:30;;;;;;;97.63;31.40;;;2.00;99.90;;;;;;5070750;28;20490;-45
2022/01/17 04:02:58;;;;;;;98.30;31.67;;;2.10;99.90;;;;;;5045135;28;20492;-45
2022/01/17 04:05:26;;;;;;;73.87;26.17;;;2.20;99.90;;;;;;5066983;28;21070;-45
2022/01/17 04:07:53;;;;;;;74.67;25.30;;;2.10;99.90;;;;;;5058784;28;20487;-45
2022/01/17 04:10:20;;;;;;;101.43;24.53;;;2.00;99.90;;;;;;5051157;28;20497;-45
2022/01/17 04:12:47;;;;;;;91.97;31.10;;;2.10;99.90;;;;;;5068210;28;20459;-44
2022/01/17 04:15:15;;;;;;;93.03;31.13;;;2.10;99.90;;;;;;5041493;28;20504;-44
2022/01/17 04:17:43;;;;;;;104.30;36.30;;;2.20;99.90;;;;;;5072920;28;20838;-45
2022/01/17 04:20:13;;;;;;;89.20;32.07;;;2.20;99.90;;;;;;5054048;28;20590;-45
2022/01/17 04:22:49;;;;;;;88.83;29.87;;;2.20;99.90;;;;;;5047198;28;20566;-45
2022/01/17 04:25:16;;;;;;;239.73;53.73;;;2.20;99.90;;;;;;5066453;28;20494;-45
2022/01/17 04:27:43;;;;;;;138.57;45.20;;;2.20;99.90;;;;;;5059532;28;20493;-45
2022/01/17 04:30:13;;;;;;;95.03;32.63;;;2.10;99.90;;;;;;5069104;28;20493;-45
2022/01/17 04:32:41;;;;;;;42.47;17.93;;;2.20;99.90;;;;;;5071684;28;20482;-45
2022/01/17 04:35:09;;;;;;;69.93;28.50;;;2.20;99.90;;;;;;5074632;28;20580;-46
2022/01/17 04:37:36;;;;;;;53.33;22.57;;;2.20;99.90;;;;;;5055387;28;20486;-45
2022/01/17 04:40:05;;;;;;;48.17;20.27;;;2.20;99.90;;;;;;5057259;27;20532;-45
2022/01/17 04:42:32;;;;;;;49.97;19.83;;;2.20;99.90;;;;;;5047916;28;20490;-45
2022/01/17 04:45:11;;;;;;;143.20;26.10;;;2.20;99.90;;;;;;5066051;28;20486;-44
2022/01/17 04:47:39;;;;;;;83.50;18.77;;;2.10;99.90;;;;;;5047557;28;20828;-45
2022/01/17 04:50:07;;;;;;;70.80;29.17;;;2.10;99.90;;;;;;5058791;28;20487;-45
2022/01/17 04:52:35;;;;;;;75.53;20.43;;;2.10;99.90;;;;;;5059003;28;20486;-45
2022/01/17 04:55:04;;;;;;;59.20;23.17;;;2.10;99.90;;;;;;5065033;28;20551;-45
2022/01/17 04:57:30;;;;;;;62.50;25.33;;;2.10;99.90;;;;;;5059637;28;20491;-44
2022/01/17 04:59:57;;;;;;;54.60;20.40;;;2.10;99.90;;;;;;5079266;28;20485;-44
2022/01/17 05:02:24;;;;;;;26.70;16.80;;;2.20;99.90;;;;;;5045871;28;20573;-44
2022/01/17 05:04:51;;;;;;;57.50;26.50;;;2.20;99.90;;;;;;5058049;28;20672;-45
2022/01/17 05:07:18;;;;;;;37.60;18.80;;;2.10;99.90;;;;;;5059913;28;20510;-50
2022/01/17 05:09:46;;;;;;;36.30;15.70;;;2.20;99.90;;;;;;5048905;28;20493;-45
2022/01/17 05:12:15;;;;;;;42.43;18.60;;;2.10;99.90;;;;;;5084049;27;20993;-45
2022/01/17 05:14:45;;;;;;;51.77;20.37;;;2.10;99.90;;;;;;5063822;28;20491;-44
2022/01/17 05:17:34;;;;;;;34.30;17.80;;;2.10;99.90;;;;;;5054373;28;20569;-45
2022/01/17 05:20:01;;;;;;;48.87;16.60;;;2.10;99.90;;;;;;5065131;28;20470;-45
2022/01/17 05:22:31;;;;;;;40.83;15.77;;;2.10;99.90;;;;;;5077927;28;20963;-46
2022/01/17 05:24:59;;;;;;;49.60;15.80;;;2.10;99.90;;;;;;5061324;28;20561;-46
2022/01/17 05:27:27;;;;;;;52.03;18.40;;;2.10;99.90;;;;;;5058871;28;20506;-47
2022/01/17 05:29:54;;;;;;;94.93;32.60;;;2.10;99.90;;;;;;5069989;28;20477;-45
2022/01/17 05:32:21;;;;;;;64.77;24.50;;;2.10;99.90;;;;;;5075190;27;20518;-45
2022/01/17 05:34:48;;;;;;;70.17;24.10;;;2.10;99.90;;;;;;5045737;28;20477;-45
2022/01/17 05:37:14;;;;;;;53.40;21.43;;;2.10;99.90;;;;;;5058237;28;20494;-45
2022/01/17 05:39:42;;;;;;;95.67;28.50;;;2.20;99.90;;;;;;5054122;28;20490;-45
2022/01/17 05:42:14;;;;;;;65.87;24.83;;;2.20;99.90;;;;;;5065051;28;20472;-48
2022/01/17 05:44:42;;;;;;;91.43;29.17;;;2.10;99.90;;;;;;5045156;28;20537;-45
2022/01/17 05:47:09;;;;;;;47.90;18.63;;;2.10;99.90;;;;;;5028906;28;21133;-50
2022/01/17 05:49:36;;;;;;;60.40;23.10;;;2.10;99.90;;;;;;5061654;28;20509;-45
2022/01/17 05:52:03;;;;;;;85.93;29.87;;;2.10;99.90;;;;;;5056722;28;20566;-45
2022/01/17 05:54:30;;;;;;;66.13;24.10;;;2.10;99.90;;;;;;5060846;28;20932;-45
2022/01/17 05:56:57;;;;;;;79.70;28.73;;;2.10;99.90;;;;;;5052708;28;20542;-45
2022/01/17 05:59:23;;;;;;;93.03;33.37;;;2.10;99.90;;;;;;5045958;28;20535;-45
2022/01/17 06:01:51;;;;;;;48.07;19.00;;;2.20;99.90;;;;;;5051128;28;20497;-45
2022/01/17 06:04:19;;;;;;;108.33;36.10;;;2.20;99.90;;;;;;5058784;28;20571;-45
2022/01/17 06:06:46;;;;;;;73.60;27.70;;;2.10;99.90;;;;;;5056847;28;20478;-45
2022/01/17 06:09:12;;;;;;;67.00;23.17;;;2.10;99.90;;;;;;5041001;28;20981;-45
2022/01/17 06:11:47;;;;;;;55.03;21.37;;;2.10;99.90;;;;;;5038146;28;20509;-45
2022/01/17 06:14:17;;;;;;;57.33;17.30;;;2.20;99.90;;;;;;5058742;28;20495;-47
2022/01/17 06:16:44;;;;;;;60.70;21.10;;;2.20;99.90;;;;;;5046678;28;20460;-45
2022/01/17 06:19:12;;;;;;;70.10;25.73;;;2.30;99.90;;;;;;5055520;28;20514;-46
2022/01/17 06:21:39;;;;;;;71.93;24.83;;;2.30;99.90;;;;;;5061072;28;20476;-45
2022/01/17 06:24:09;;;;;;;52.93;19.90;;;2.30;99.90;;;;;;5055788;28;20478;-45
2022/01/17 06:26:37;;;;;;;77.97;25.70;;;2.30;99.90;;;;;;5052353;28;20513;-45
2022/01/17 06:29:04;;;;;;;71.47;21.77;;;2.40;99.90;;;;;;5049541;28;20902;-46
2022/01/17 06:31:31;;;;;;;65.67;24.60;;;2.40;99.90;;;;;;5050700;28;20494;-45
2022/01/17 06:33:58;;;;;;;68.20;20.60;;;2.40;99.90;;;;;;5045327;28;20477;-45
2022/01/17 06:36:26;;;;;;;146.30;26.40;;;;;;;;;;5057513;28;20479;-45
2022/01/17 06:38:54;;;;;;;158.53;31.50;;;;;;;;;;5060237;28;20490;-45
2022/01/17 06:41:21;;;;;;;84.70;30.27;;;2.40;99.90;;;;;;5044550;28;20494;-45
2022/01/17 06:43:48;;;;;;;82.67;23.67;;;2.40;99.90;;;;;;5067320;27;20482;-45
2022/01/17 06:46:15;;;;;;;62.10;25.10;;;2.30;99.90;;;;;;5061199;28;20496;-44
2022/01/17 06:48:43;;;;;;;79.57;21.47;;;2.30;99.90;;;;;;5036972;28;20546;-45
2022/01/17 06:51:10;;;;;;;64.13;24.60;;;2.30;99.90;;;;;;5055182;28;20514;-45
2022/01/17 06:53:38;;;;;;;118.03;33.27;;;2.30;99.90;;;;;;5055529;28;20550;-45
2022/01/17 06:56:05;;;;;;;52.17;19.27;;;2.20;99.90;;;;;;5063532;28;20482;-45
2022/01/17 06:58:32;;;;;;;98.40;29.00;;;2.30;99.90;;;;;;5057357;27;20495;-45
2022/01/17 07:00:59;;;;;;;101.23;28.47;;;2.30;99.90;;;;;;5068492;27;20495;-45
2022/01/17 07:03:26;;;;;;;88.93;24.23;;;;;;;;;;5070339;27;20486;-45
2022/01/17 07:05:53;;;;;;;86.43;22.50;;;2.30;99.90;;;;;;5076274;28;20532;-45
2022/01/17 07:08:20;;;;;;;61.13;24.10;;;2.30;99.90;;;;;;5070376;28;21055;-45
2022/01/17 07:10:48;;;;;;;128.07;35.70;;;2.20;99.90;;;;;;5046176;28;20491;-45
2022/01/17 07:13:14;;;;;;;244.13;48.70;;;2.10;99.90;;;;;;5050225;28;20860;-46
2022/01/17 07:15:41;;;;;;;90.23;25.80;;;2.10;99.90;;;;;;5036976;28;20548;-45
2022/01/17 07:18:09;;;;;;;115.77;33.10;;;;;;;;;;5034368;28;20481;-45
2022/01/17 07:20:35;;;;;;;60.57;20.93;;;2.10;99.90;;;;;;5046440;28;20501;-45
2022/01/17 07:23:02;;;;;;;68.60;21.00;;;2.20;99.90;;;;;;5054075;28;20483;-45
2022/01/17 07:25:29;;;;;;;127.47;37.43;;;2.20;99.90;;;;;;5060604;28;20466;-45
2022/01/17 07:27:57;;;;;;;60.83;20.97;;;2.10;99.90;;;;;;5058488;28;20485;-51
2022/01/17 07:30:26;;;;;;;135.87;35.73;;;2.20;99.90;;;;;;5047195;28;20506;-45
2022/01/17 07:32:53;;;;;;;132.80;31.63;;;2.20;99.90;;;;;;5065417;28;20971;-46
2022/01/17 07:35:20;;;;;;;251.80;50.57;;;2.30;99.90;;;;;;5067615;28;20516;-45
2022/01/17 07:37:46;;;;;;;130.63;37.47;;;2.30;99.90;;;;;;5069818;28;20475;-45
2022/01/17 07:40:14;;;;;;;96.07;28.73;;;2.40;99.90;;;;;;5063638;28;20498;-45
2022/01/17 07:42:40;;;;;;;118.07;32.10;;;2.40;99.90;;;;;;5048344;28;20485;-45
2022/01/17 07:45:13;;;;;;;79.00;26.17;;;2.40;99.90;;;;;;5090624;27;20476;-45
2022/01/17 07:47:55;;;;;;;97.57;31.87;;;2.40;99.90;;;;;;5077235;27;20676;-45
2022/01/17 07:50:24;;;;;;;87.77;26.97;;;2.40;99.90;;;;;;5053217;28;20481;-46
2022/01/17 07:52:52;;;;;;;82.33;26.50;;;2.40;99.90;;;;;;5057355;28;20509;-45
2022/01/17 07:55:21;;;;;;;53.53;22.23;;;2.50;99.90;;;;;;5053561;28;20480;-46
2022/01/17 07:57:48;;;;;;;75.73;23.57;;;2.50;99.90;;;;;;5026861;28;20559;-49
2022/01/17 08:00:22;;;;;;;264.97;44.33;;;2.50;99.90;;;;;;5056634;28;20968;-46
2022/01/17 08:02:50;;;;;;;47.27;19.63;;;2.40;99.90;;;;;;5048778;28;20474;-45
2022/01/17 08:05:17;;;;;;;64.67;20.23;;;2.40;99.90;;;;;;5060474;28;21086;-45
2022/01/17 08:07:44;;;;;;;71.90;23.63;;;2.40;99.90;;;;;;5054136;28;20475;-45
2022/01/17 08:10:12;;;;;;;96.27;33.17;;;2.30;99.90;;;;;;5052793;28;20478;-46
2022/01/17 08:12:39;;;;;;;87.30;27.03;;;2.30;99.90;;;;;;5048467;28;21410;-45
2022/01/17 08:15:06;;;;;;;118.67;30.93;;;2.30;99.90;;;;;;5051461;28;20574;-45
2022/01/17 08:17:34;;;;;;;120.93;30.93;;;2.30;99.90;;;;;;5038137;28;20788;-45
2022/01/17 08:20:01;;;;;;;210.97;45.17;;;2.20;99.90;;;;;;5054036;28;20487;-45
2022/01/17 08:22:28;;;;;;;65.53;20.23;;;2.10;99.90;;;;;;5054264;28;20642;-44
2022/01/17 08:24:55;;;;;;;69.87;21.93;;;2.20;99.90;;;;;;5058981;28;20482;-45
2022/01/17 08:27:22;;;;;;;85.03;28.17;;;2.20;99.90;;;;;;5051531;28;20907;-45
2022/01/17 08:29:48;;;;;;;109.87;28.30;;;2.30;99.90;;;;;;5048418;28;20485;-45
2022/01/17 08:32:15;;;;;;;53.40;22.97;;;2.30;99.90;;;;;;5044150;28;20497;-45
2022/01/17 08:34:43;;;;;;;45.23;17.60;;;2.30;99.90;;;;;;5046030;28;20483;-45
2022/01/17 08:37:10;;;;;;;118.43;34.47;;;2.40;99.90;;;;;;5041859;28;20486;-45
2022/01/17 08:39:37;;;;;;;40.70;15.67;;;2.40;99.90;;;;;;5036074;28;20909;-45
2022/01/17 08:42:10;;;;;;;61.67;19.77;;;2.40;99.90;;;;;;5040280;28;20481;-45
2022/01/17 08:44:38;;;;;;;69.93;21.80;;;2.40;99.90;;;;;;5052756;28;20494;-44
2022/01/17 08:47:05;;;;;;;59.67;21.83;;;2.40;99.90;;;;;;5056053;28;20516;-44
2022/01/17 08:49:32;;;;;;;175.23;40.60;;;2.30;99.90;;;;;;5056936;28;21947;-45
2022/01/17 08:52:00;;;;;;;87.23;22.37;;;2.30;99.90;;;;;;5050465;28;20489;-45
2022/01/17 08:54:27;;;;;;;42.90;14.27;;;2.30;99.90;;;;;;5051966;28;20586;-45
2022/01/17 08:56:53;;;;;;;56.53;22.47;;;2.40;99.90;;;;;;5048970;28;20483;-45
2022/01/17 08:59:20;;;;;;;79.33;25.67;;;2.40;99.90;;;;;;5020917;28;20490;-45
2022/01/17 09:01:47;;;;;;;64.57;20.97;;;2.40;99.90;;;;;;5060998;28;20475;-45
2022/01/17 09:04:13;;;;;;;36.80;14.90;;;2.40;99.90;;;;;;5052436;28;20494;-45
2022/01/17 09:06:40;;;;;;;71.23;24.27;;;2.50;99.90;;;;;;5048477;28;20490;-45
2022/01/17 09:09:08;;;;;;;60.40;20.93;;;2.60;99.90;;;;;;5048860;28;20485;-45
2022/01/17 09:11:35;;;;;;;60.00;22.57;;;2.60;99.90;;;;;;5056623;28;20473;-45
2022/01/17 09:14:02;;;;;;;98.77;31.43;;;2.60;99.90;;;;;;5037025;28;21047;-45
2022/01/17 09:16:28;;;;;;;50.40;18.90;;;2.70;99.90;;;;;;5062213;28;20486;-45
2022/01/17 09:18:55;;;;;;;40.30;12.60;;;2.70;99.90;;;;;;5052507;28;20496;-45
2022/01/17 09:21:22;;;;;;;97.03;29.20;;;2.70;99.90;;;;;;5058512;28;20486;-45
2022/01/17 09:23:50;;;;;;;92.80;28.03;;;2.70;99.90;;;;;;5057412;28;20946;-45
2022/01/17 09:26:21;;;;;;;75.87;23.87;;;2.60;99.90;;;;;;5059512;28;20531;-45
2022/01/17 09:28:48;;;;;;;64.60;19.17;;;2.70;99.90;;;;;;5060875;28;20523;-45
2022/01/17 09:31:15;;;;;;;49.83;18.67;;;2.70;99.90;;;;;;5042085;28;21050;-46
2022/01/17 09:33:42;;;;;;;44.73;14.63;;;2.80;99.90;;;;;;5080834;27;20475;-45
2022/01/17 09:36:08;;;;;;;49.63;13.13;;;2.70;99.90;;;;;;5051753;28;20481;-45
2022/01/17 09:38:35;;;;;;;80.20;21.27;;;2.80;99.90;;;;;;5067377;28;20483;-45
2022/01/17 09:41:03;;;;;;;69.70;23.73;;;2.80;99.90;;;;;;5048081;28;20586;-45
2022/01/17 09:43:31;;;;;;;28.40;12.30;;;2.70;99.90;;;;;;5053824;28;20497;-46
2022/01/17 09:45:58;;;;;;;50.27;16.97;;;2.70;99.90;;;;;;5056057;28;20490;-45
2022/01/17 09:48:34;;;;;;;39.90;16.20;;;2.60;99.90;;;;;;5042176;28;20497;-45
2022/01/17 09:51:04;;;;;;;60.97;17.57;;;2.60;99.90;;;;;;5050262;28;21011;-45
2022/01/17 09:53:38;;;;;;;36.67;14.57;;;2.60;99.90;;;;;;5042782;28;20481;-46
2022/01/17 09:56:06;;;;;;;63.97;23.70;;;2.60;99.90;;;;;;5051361;28;20510;-46
2022/01/17 09:58:36;;;;;;;115.07;32.43;;;2.60;99.90;;;;;;5060709;28;20512;-45
2022/01/17 10:01:04;;;;;;;59.37;20.27;;;2.50;99.90;;;;;;5036159;28;20491;-45
2022/01/17 10:03:32;;;;;;;87.87;24.33;;;2.60;99.90;;;;;;5054139;28;20590;-45
2022/01/17 10:06:00;;;;;;;48.23;18.13;;;2.60;99.90;;;;;;5058032;28;20564;-45
2022/01/17 10:08:27;;;;;;;42.67;15.63;;;2.70;99.90;;;;;;5061366;28;20534;-45
2022/01/17 10:10:57;;;;;;;103.43;26.57;;;2.80;99.90;;;;;;5038085;28;20493;-45
2022/01/17 10:13:26;;;;;;;40.83;16.47;;;2.80;99.90;;;;;;5037272;28;20490;-45
2022/01/17 10:16:05;;;;;;;71.87;22.97;;;2.80;99.90;;;;;;5052565;28;20489;-45
2022/01/17 10:18:36;;;;;;;130.93;32.60;;;2.90;99.90;;;;;;5053460;28;20941;-45
2022/01/17 10:21:07;;;;;;;52.47;17.10;;;3.00;99.90;;;;;;5056776;28;20478;-45
2022/01/17 10:29:38;;;;;;;62.27;19.50;;;3.10;99.90;;;;;;5025271;28;20478;-45
2022/01/17 10:34:55;;;;;;;87.00;26.67;;;3.10;99.90;;;;;;5068110;28;20476;-45
2022/01/17 10:37:23;;;;;;;59.40;17.17;;;3.20;99.90;;;;;;5080178;28;21505;-46
2022/01/17 10:39:58;;;;;;;62.70;21.87;;;3.20;99.90;;;;;;5075973;28;20915;-45
2022/01/17 10:42:27;;;;;;;55.97;18.17;;;3.20;99.90;;;;;;5077620;28;20962;-46
2022/01/17 10:44:54;;;;;;;88.90;29.10;;;3.20;99.90;;;;;;5075095;28;20479;-45
2022/01/17 10:47:26;;;;;;;68.73;23.40;;;3.10;99.90;;;;;;5070096;28;20905;-46
2022/01/17 10:49:54;;;;;;;68.13;23.87;;;3.20;99.90;;;;;;5067419;28;20488;-46
2022/01/17 10:52:33;;;;;;;48.27;17.77;;;3.20;99.90;;;;;;5055226;27;20531;-46
2022/01/17 10:55:04;;;;;;;68.20;26.70;;;3.30;99.90;;;;;;5065660;28;20472;-45
2022/01/17 10:57:35;;;;;;;49.77;18.13;;;3.30;99.90;;;;;;5061058;28;21191;-45
2022/01/17 11:00:05;;;;;;;41.87;14.23;;;3.30;99.90;;;;;;5080592;28;20501;-46
2022/01/17 11:02:33;;;;;;;43.57;15.00;;;3.40;99.90;;;;;;5071829;28;21222;-46
2022/01/17 11:05:03;;;;;;;43.77;17.80;;;3.50;99.90;;;;;;5083948;28;20481;-45
2022/01/17 11:07:30;;;;;;;49.33;16.90;;;3.50;99.90;;;;;;5080045;28;20495;-46
2022/01/17 11:10:01;;;;;;;68.67;22.90;;;3.50;99.90;;;;;;5075611;28;20484;-46
2022/01/17 11:12:30;;;;;;;48.27;15.53;;;3.40;99.90;;;;;;5098305;27;20902;-46
2022/01/17 11:14:58;;;;;;;52.93;19.47;;;3.40;99.90;;;;;;5077891;28;21030;-46
2022/01/17 11:17:33;;;;;;;45.33;18.47;;;3.50;99.90;;;;;;5073718;28;20569;-46
2022/01/17 11:20:05;;;;;;;65.90;22.50;;;3.50;99.90;;;;;;5076102;28;20557;-46
2022/01/17 11:22:33;;;;;;;59.43;18.90;;;3.50;99.90;;;;;;5080637;28;20960;-46
2022/01/17 11:25:00;;;;;;;57.37;19.07;;;3.50;99.90;;;;;;5077170;28;20490;-46
2022/01/17 11:27:27;;;;;;;58.63;22.27;;;3.60;99.90;;;;;;5082448;28;20482;-45
2022/01/17 11:29:55;;;;;;;78.83;27.40;;;3.50;99.90;;;;;;5070702;28;20486;-46
2022/01/17 11:32:22;;;;;;;59.10;20.27;;;3.50;99.90;;;;;;5094391;27;20484;-46
2022/01/17 11:34:50;;;;;;;59.27;19.93;;;3.50;99.90;;;;;;5092151;27;20478;-45
2022/01/17 11:37:20;;;;;;;46.87;20.10;;;3.50;99.90;;;;;;5071282;28;20477;-45
2022/01/17 11:39:49;;;;;;;50.10;18.80;;;3.50;99.90;;;;;;5092830;27;20482;-46
2022/01/17 11:42:40;;;;;;;57.43;22.50;;;3.60;99.90;;;;;;5087169;27;20521;-45
2022/01/17 11:45:37;;;;;;;55.43;21.00;;;3.60;99.90;;;;;;5074735;28;20493;-46
2022/01/17 11:48:16;;;;;;;50.77;17.97;;;3.70;99.90;;;;;;5065466;28;21017;-46
2022/01/17 11:50:46;;;;;;;51.50;19.73;;;3.70;99.90;;;;;;5068896;28;20482;-46
2022/01/17 11:53:42;;;;;;;41.97;17.70;;;3.80;99.90;;;;;;5073892;28;20486;-46
2022/01/17 11:56:10;;;;;;;40.07;18.20;;;3.80;99.90;;;;;;5064096;28;20466;-45
2022/01/17 11:58:43;;;;;;;37.63;17.07;;;3.80;99.90;;;;;;5066075;28;20470;-46
2022/01/17 12:01:16;;;;;;;31.53;12.07;;;3.80;99.90;;;;;;5069837;28;20485;-45
2022/01/17 12:03:46;;;;;;;44.10;17.73;;;3.80;99.90;;;;;;5067619;28;20840;-46
2022/01/17 12:06:25;;;;;;;38.13;17.00;;;3.80;99.90;;;;;;5065098;28;20537;-46
2022/01/17 12:09:22;;;;;;;39.97;18.20;;;3.90;99.90;;;;;;5075541;28;20485;-46
2022/01/17 12:11:53;;;;;;;43.30;16.83;;;3.80;99.90;;;;;;5063454;28;20488;-46
2022/01/17 12:14:22;;;;;;;53.83;19.17;;;3.80;99.90;;;;;;5092586;27;20497;-46
2022/01/17 12:16:49;;;;;;;44.57;18.13;;;3.90;99.90;;;;;;5069319;27;20537;-46
2022/01/17 12:19:16;;;;;;;34.23;14.43;;;3.80;99.90;;;;;;5076514;28;20494;-47
2022/01/17 12:21:44;;;;;;;33.67;15.33;;;3.80;99.90;;;;;;5103728;28;20477;-45
2022/01/17 12:24:41;;;;;;;42.53;16.03;;;3.80;99.90;;;;;;5063270;28;20490;-46
2022/01/17 12:27:22;;;;;;;61.87;18.47;;;3.90;99.90;;;;;;5076585;28;20586;-46
2022/01/17 12:29:59;;;;;;;26.43;13.47;;;;;;;;;;5073375;28;20474;-46
2022/01/17 12:32:53;;;;;;;55.67;22.33;;;3.80;99.90;;;;;;5076247;28;20528;-47
2022/01/17 12:35:25;;;;;;;43.40;16.27;;;3.80;99.90;;;;;;5065702;28;20492;-47
2022/01/17 12:37:55;;;;;;;34.10;12.47;;;3.80;99.90;;;;;;5091711;28;20479;-47
2022/01/17 12:40:30;;;;;;;32.63;12.93;;;3.80;99.90;;;;;;5080214;28;20486;-48
2022/01/17 12:43:00;;;;;;;45.90;18.70;;;3.80;99.90;;;;;;5051621;28;20474;-46
2022/01/17 12:45:30;;;;;;;36.97;13.37;;;3.90;99.90;;;;;;5067244;27;20480;-46
2022/01/17 12:47:59;;;;;;;36.57;14.70;;;4.00;99.90;;;;;;5070823;28;20472;-46
2022/01/17 12:50:28;;;;;;;49.93;18.40;;;4.00;99.90;;;;;;5057113;28;21291;-45
2022/01/17 12:52:56;;;;;;;40.10;16.97;;;4.00;99.90;;;;;;5066269;28;20585;-46
2022/01/17 12:55:26;;;;;;;46.20;16.90;;;4.10;99.90;;;;;;5073635;28;20483;-49
2022/01/17 12:57:53;;;;;;;40.10;16.07;;;4.10;99.90;;;;;;5063771;28;20491;-46
2022/01/17 13:00:22;;;;;;;56.17;22.70;;;4.10;99.90;;;;;;5068390;28;21248;-46
2022/01/17 13:02:52;;;;;;;55.17;20.47;;;4.10;99.90;;;;;;5062642;28;20483;-46